Time;durP1;ratioP1;P1;durP2;ratioP2;P2;SDS_P1;SDS_P2;PMS_P1;PMS_P2;Temp;Humidity;BMP_temperature;BMP_pressure;BME280_temperature;BME280_humidity;BME280_pressure;Samples;Min_cycle;Max_cycle;Signal;HPM_P1;HPM_P2
2022/10/04 00:02:03;;;;;;;4.30;1.48;;;11.60;99.90;;;;;;5017395;28;20461;-75
2022/10/04 00:04:39;;;;;;;5.00;1.30;;;11.70;99.90;;;;;;5017181;28;20401;-75
2022/10/04 00:07:11;;;;;;;2.85;1.35;;;11.60;99.90;;;;;;5034194;28;20060;-75
2022/10/04 00:09:44;;;;;;;3.65;1.20;;;11.60;99.90;;;;;;5017173;28;20068;-75
2022/10/04 00:12:22;;;;;;;3.55;1.55;;;11.60;99.90;;;;;;5017435;28;20128;-75
2022/10/04 00:14:50;;;;;;;5.20;1.83;;;11.60;99.90;;;;;;5034619;28;20038;-75
2022/10/04 00:17:23;;;;;;;3.10;1.52;;;11.50;99.90;;;;;;5034318;28;20044;-75
2022/10/04 00:19:50;;;;;;;5.25;1.20;;;11.50;99.90;;;;;;5034687;28;20021;-75
2022/10/04 00:22:29;;;;;;;4.78;1.42;;;11.50;99.90;;;;;;5016749;28;20021;-75
2022/10/04 00:25:00;;;;;;;7.85;1.58;;;11.50;99.90;;;;;;5016808;28;20034;-76
2022/10/04 00:27:27;;;;;;;4.57;1.42;;;11.50;99.90;;;;;;5016705;28;20053;-75
2022/10/04 00:30:02;;;;;;;3.92;1.35;;;11.50;99.90;;;;;;5016930;28;20384;-75
2022/10/04 00:32:40;;;;;;;3.50;1.20;;;11.50;99.90;;;;;;5016973;28;20034;-75
2022/10/04 00:35:24;;;;;;;5.40;1.33;;;11.50;99.90;;;;;;5016790;28;20036;-75
2022/10/04 00:38:16;;;;;;;5.15;1.58;;;11.60;99.90;;;;;;5034526;28;20022;-75
2022/10/04 00:40:56;;;;;;;4.72;1.60;;;11.60;99.90;;;;;;5034534;28;20104;-75
2022/10/04 00:43:28;;;;;;;2.63;1.08;;;11.60;99.90;;;;;;5016620;28;20022;-76
2022/10/04 00:46:09;;;;;;;3.72;1.20;;;11.60;99.90;;;;;;5016222;28;20022;-75
2022/10/04 00:48:47;;;;;;;3.03;1.25;;;11.60;99.90;;;;;;5017301;28;20021;-75
2022/10/04 00:51:24;;;;;;;2.58;1.65;;;11.70;99.90;;;;;;5016785;28;20405;-75
2022/10/04 00:53:57;;;;;;;4.32;1.85;;;11.70;99.90;;;;;;5034295;28;20034;-75
2022/10/04 00:56:29;;;;;;;5.15;1.23;;;11.70;99.90;;;;;;5016423;28;20036;-76
2022/10/04 00:58:56;;;;;;;2.88;1.25;;;11.70;99.90;;;;;;5034004;28;20378;-75
2022/10/04 01:01:24;;;;;;;2.85;1.30;;;11.70;99.90;;;;;;5016383;28;20079;-76
2022/10/04 01:03:55;;;;;;;5.47;1.25;;;11.70;99.90;;;;;;5016033;28;20057;-75
2022/10/04 01:06:22;;;;;;;5.28;1.33;;;11.70;99.90;;;;;;5034136;28;20488;-75
2022/10/04 01:08:52;;;;;;;1.65;1.15;;;11.80;99.90;;;;;;5034018;28;20030;-76
2022/10/04 01:11:28;;;;;;;6.00;1.60;;;11.70;99.90;;;;;;5033754;28;20439;-76
2022/10/04 01:14:03;;;;;;;2.92;1.17;;;11.80;99.90;;;;;;5033895;28;20025;-76
2022/10/04 01:16:32;;;;;;;7.30;1.48;;;11.70;99.90;;;;;;5016511;28;20029;-76
2022/10/04 01:19:23;;;;;;;4.00;1.50;;;11.70;99.90;;;;;;5037890;28;20446;-75
2022/10/04 01:22:04;;;;;;;3.88;1.38;;;11.70;99.90;;;;;;5022576;28;20063;-76
2022/10/04 01:24:34;;;;;;;4.20;1.40;;;11.70;99.90;;;;;;5022712;28;20095;-76
2022/10/04 01:27:00;;;;;;;5.95;1.77;;;11.80;99.90;;;;;;5022476;28;20048;-76
2022/10/04 01:29:28;;;;;;;2.78;1.50;;;11.80;99.90;;;;;;5040259;28;20021;-76
2022/10/04 01:31:56;;;;;;;7.22;3.47;;;11.70;99.90;;;;;;5022385;28;20359;-75
2022/10/04 01:34:24;;;;;;;5.68;1.42;;;11.70;99.90;;;;;;5022548;28;20034;-75
2022/10/04 01:36:53;;;;;;;3.65;1.30;;;11.70;99.90;;;;;;5040608;28;20108;-76
2022/10/04 01:39:22;;;;;;;6.13;1.45;;;11.70;99.90;;;;;;5022119;28;20037;-76
2022/10/04 01:42:04;;;;;;;3.58;1.98;;;11.70;99.90;;;;;;5022438;28;20526;-76
2022/10/04 01:44:37;;;;;;;5.82;1.50;;;11.70;99.90;;;;;;5022458;28;20556;-76
2022/10/04 01:47:12;;;;;;;6.85;1.55;;;11.70;99.90;;;;;;5040124;28;20021;-76
2022/10/04 01:49:40;;;;;;;3.95;1.88;;;11.70;99.90;;;;;;5022865;28;20026;-76
2022/10/04 01:52:21;;;;;;;6.38;1.45;;;11.60;99.90;;;;;;5022737;28;20029;-76
2022/10/04 01:55:00;;;;;;;5.82;1.60;;;11.60;99.90;;;;;;5022327;28;20041;-76
2022/10/04 01:57:37;;;;;;;3.85;1.33;;;11.60;99.90;;;;;;5039725;28;20435;-76
2022/10/04 02:00:09;;;;;;;5.97;1.48;;;11.50;99.90;;;;;;5039662;28;20083;-75
2022/10/04 02:02:59;;;;;;;4.45;1.50;;;11.50;99.90;;;;;;5022246;28;20032;-75
2022/10/04 02:05:36;;;;;;;5.03;1.50;;;11.50;99.90;;;;;;5022363;28;20087;-76
2022/10/04 02:08:10;;;;;;;5.07;1.38;;;11.50;99.90;;;;;;5022251;28;20057;-76
2022/10/04 02:10:38;;;;;;;5.72;1.40;;;11.40;99.90;;;;;;5022597;28;20446;-75
2022/10/04 02:13:12;;;;;;;2.83;1.15;;;11.40;99.90;;;;;;5022463;28;20166;-76
2022/10/04 02:15:38;;;;;;;4.30;2.10;;;11.40;99.90;;;;;;5022035;28;20523;-76
2022/10/04 02:18:19;;;;;;;5.35;1.17;;;11.40;99.90;;;;;;5022766;28;20112;-75
2022/10/04 02:20:48;;;;;;;5.63;1.50;;;11.40;99.90;;;;;;5039863;28;20032;-75
2022/10/04 02:23:17;;;;;;;4.30;1.20;;;11.40;99.90;;;;;;5040014;28;20108;-76
2022/10/04 02:25:43;;;;;;;2.15;1.25;;;11.40;99.90;;;;;;5021913;28;20041;-76
2022/10/04 02:28:12;;;;;;;2.45;1.30;;;11.40;99.90;;;;;;5021919;28;20025;-76
2022/10/04 02:30:42;;;;;;;3.10;1.40;;;11.40;99.90;;;;;;5036524;28;20044;-76
2022/10/04 02:33:09;;;;;;;2.78;1.58;;;11.50;99.90;;;;;;5018919;28;20030;-76
2022/10/04 02:35:46;;;;;;;2.78;1.20;;;11.50;99.90;;;;;;5018597;28;20029;-76
2022/10/04 02:38:12;;;;;;;5.07;1.42;;;11.50;99.90;;;;;;5019028;28;20385;-76
2022/10/04 02:40:46;;;;;;;4.10;1.10;;;11.50;99.90;;;;;;5018668;28;20022;-76
2022/10/04 02:43:18;;;;;;;10.15;1.65;;;11.50;99.90;;;;;;5018855;28;20025;-76
2022/10/04 02:45:47;;;;;;;5.85;2.13;;;11.50;99.90;;;;;;5018368;28;20125;-76
2022/10/04 02:48:20;;;;;;;4.43;1.35;;;11.40;99.90;;;;;;5018532;28;20466;-76
2022/10/04 02:50:52;;;;;;;4.45;1.50;;;11.40;99.90;;;;;;5018651;28;20481;-76
2022/10/04 02:53:28;;;;;;;3.78;1.40;;;11.40;99.90;;;;;;5018512;28;20021;-75
2022/10/04 02:55:54;;;;;;;3.20;1.42;;;11.40;99.90;;;;;;5018332;28;20118;-76
2022/10/04 02:58:22;;;;;;;6.07;1.73;;;11.40;99.90;;;;;;5018398;28;20029;-75
2022/10/04 03:00:58;;;;;;;3.13;1.27;;;11.40;99.90;;;;;;5018534;28;20036;-75
2022/10/04 03:03:33;;;;;;;4.05;1.27;;;11.50;99.90;;;;;;5017930;28;20512;-76
2022/10/04 03:06:05;;;;;;;5.45;1.35;;;11.40;99.90;;;;;;5018703;28;20454;-76
2022/10/04 03:08:46;;;;;;;5.88;2.15;;;11.50;99.90;;;;;;5035980;28;20121;-76
2022/10/04 03:11:14;;;;;;;4.63;1.30;;;11.40;99.90;;;;;;5035667;28;20105;-75
2022/10/04 03:13:48;;;;;;;2.40;1.40;;;11.50;99.90;;;;;;5018026;28;20029;-75
2022/10/04 03:16:15;;;;;;;5.88;1.63;;;11.40;99.90;;;;;;5035843;28;20076;-76
2022/10/04 03:18:42;;;;;;;5.03;1.40;;;11.40;99.90;;;;;;5035771;28;20029;-75
2022/10/04 03:21:11;;;;;;;4.53;1.98;;;11.50;99.90;;;;;;5017917;28;20377;-75
2022/10/04 03:23:38;;;;;;;3.25;1.27;;;11.40;99.90;;;;;;5017976;28;20389;-76
2022/10/04 03:26:27;;;;;;;10.38;2.15;;;11.40;99.90;;;;;;5017993;28;20424;-76
2022/10/04 03:28:55;;;;;;;5.82;1.73;;;11.40;99.90;;;;;;5017814;28;20032;-75
2022/10/04 03:31:22;;;;;;;4.90;1.75;;;11.40;99.90;;;;;;5018173;28;20029;-76
2022/10/04 03:33:48;;;;;;;7.18;1.63;;;11.40;99.90;;;;;;5035445;28;20037;-75
2022/10/04 03:36:17;;;;;;;6.35;1.50;;;11.40;99.90;;;;;;5017678;28;20116;-76
2022/10/04 03:38:45;;;;;;;3.28;1.30;;;11.40;99.90;;;;;;5035711;28;20029;-76
2022/10/04 03:41:12;;;;;;;3.83;1.40;;;11.40;99.90;;;;;;5035358;28;20030;-75
2022/10/04 03:43:43;;;;;;;2.95;1.23;;;11.40;99.90;;;;;;5035192;28;20029;-76
2022/10/04 03:46:09;;;;;;;4.75;1.48;;;11.40;99.90;;;;;;5035523;28;20033;-75
2022/10/04 03:48:40;;;;;;;7.13;1.70;;;11.40;99.90;;;;;;5017454;28;20026;-75
2022/10/04 03:51:09;;;;;;;3.83;1.45;;;11.40;99.90;;;;;;5035189;28;20025;-75
2022/10/04 03:53:42;;;;;;;3.17;1.40;;;11.40;99.90;;;;;;5018204;28;20030;-76
2022/10/04 03:56:20;;;;;;;6.50;1.40;;;11.40;99.90;;;;;;5035364;28;20040;-75
2022/10/04 03:58:49;;;;;;;4.90;1.50;;;11.50;99.90;;;;;;5018003;28;20029;-76
2022/10/04 04:01:36;;;;;;;6.77;2.57;;;11.40;99.90;;;;;;5017614;28;20060;-75
2022/10/04 04:04:34;;;;;;;3.72;1.45;;;11.50;99.90;;;;;;5017623;28;20096;-76
2022/10/04 04:07:13;;;;;;;10.10;1.92;;;11.50;99.90;;;;;;5017645;28;20033;-77
2022/10/04 04:09:55;;;;;;;;;;;11.40;99.90;;;;;;5018266;28;20033;-75
2022/10/04 04:12:25;;;;;;;4.13;1.55;;;11.50;99.90;;;;;;5018067;28;19905;-74
2022/10/04 04:14:52;;;;;;;6.10;1.83;;;11.50;99.90;;;;;;5035406;28;20376;-76
2022/10/04 04:17:40;;;;;;;4.40;1.70;;;11.50;99.90;;;;;;5017528;28;20041;-74
2022/10/04 04:20:16;;;;;;;3.65;1.85;;;11.50;99.90;;;;;;5035157;28;20022;-75
2022/10/04 04:22:45;;;;;;;2.50;1.40;;;11.50;99.90;;;;;;5017663;28;20053;-75
2022/10/04 04:25:15;;;;;;;6.50;1.52;;;11.50;99.90;;;;;;5034813;28;20028;-74
2022/10/04 04:27:42;;;;;;;6.10;2.05;;;11.50;99.90;;;;;;5017058;28;20523;-74
2022/10/04 04:30:15;;;;;;;5.03;1.40;;;11.40;99.90;;;;;;5016837;28;20029;-75
2022/10/04 04:32:48;;;;;;;4.22;1.70;;;11.40;99.90;;;;;;5016869;28;20115;-73
2022/10/04 04:35:29;;;;;;;8.63;1.88;;;11.40;99.90;;;;;;5034412;28;20084;-75
2022/10/04 04:38:24;;;;;;;10.30;2.88;;;11.40;99.90;;;;;;5035065;28;20556;-75
2022/10/04 04:40:54;;;;;;;6.22;1.42;;;11.40;99.90;;;;;;5033796;28;20040;-74
2022/10/04 04:43:25;;;;;;;4.28;1.85;;;11.40;99.90;;;;;;5036905;28;20025;-74
2022/10/04 04:45:51;;;;;;;5.30;1.60;;;11.40;99.90;;;;;;5034207;28;20072;-74
2022/10/04 04:48:18;;;;;;;7.35;1.52;;;11.40;99.90;;;;;;5034717;28;20423;-74
2022/10/04 04:50:52;;;;;;;4.40;1.63;;;11.40;99.90;;;;;;5016955;28;20038;-74
2022/10/04 04:53:22;;;;;;;3.60;1.60;;;11.40;99.90;;;;;;5017001;28;20029;-74
2022/10/04 04:55:56;;;;;;;6.18;1.63;;;11.40;99.90;;;;;;5016924;28;20052;-74
2022/10/04 04:58:26;;;;;;;2.65;1.60;;;11.40;99.90;;;;;;5030465;28;20079;-75
2022/10/04 05:01:03;;;;;;;5.25;2.08;;;11.40;99.90;;;;;;5052554;28;20075;-74
2022/10/04 05:03:30;;;;;;;5.32;1.42;;;11.40;99.90;;;;;;5054004;28;20081;-74
2022/10/04 05:05:59;;;;;;;5.82;1.63;;;11.40;99.90;;;;;;5036480;28;20127;-74
2022/10/04 05:08:27;;;;;;;5.28;1.60;;;11.40;99.90;;;;;;5054522;28;20071;-73
2022/10/04 05:11:05;;;;;;;6.72;1.77;;;11.50;99.90;;;;;;5036229;28;20025;-74
2022/10/04 05:13:42;;;;;;;4.95;1.48;;;11.50;99.90;;;;;;5035923;28;20021;-74
2022/10/04 05:16:19;;;;;;;5.45;1.55;;;11.50;99.90;;;;;;5054252;28;20082;-74
2022/10/04 05:18:46;;;;;;;4.65;1.67;;;11.50;99.90;;;;;;5036694;28;20025;-74
2022/10/04 05:21:21;;;;;;;8.23;2.95;;;11.50;99.90;;;;;;5035635;28;20461;-74
2022/10/04 05:23:47;;;;;;;1.85;1.40;;;11.50;99.90;;;;;;5053934;28;20029;-75
2022/10/04 05:26:13;;;;;;;2.20;1.33;;;11.50;99.90;;;;;;5035913;28;20115;-74
2022/10/04 05:28:40;;;;;;;2.55;1.42;;;11.50;99.90;;;;;;5054588;28;20033;-74
2022/10/04 05:31:47;;;;;;;4.13;1.67;;;11.50;99.90;;;;;;5035668;28;20108;-75
2022/10/04 05:34:28;;;;;;;5.20;1.48;;;11.50;99.90;;;;;;5032587;28;20127;-75
2022/10/04 05:36:59;;;;;;;5.93;1.48;;;11.50;99.90;;;;;;5053747;28;20171;-75
2022/10/04 05:39:35;;;;;;;4.32;1.75;;;11.60;99.90;;;;;;5035640;28;20056;-74
2022/10/04 05:42:13;;;;;;;6.32;1.58;;;11.50;99.90;;;;;;5053674;28;20029;-75
2022/10/04 05:44:56;;;;;;;8.10;1.60;;;11.50;99.90;;;;;;5035757;28;20494;-74
2022/10/04 05:47:27;;;;;;;5.50;1.42;;;11.60;99.90;;;;;;5054057;28;20480;-74
2022/10/04 05:49:59;;;;;;;2.47;1.30;;;11.60;99.90;;;;;;5035965;28;20025;-74
2022/10/04 05:52:32;;;;;;;6.38;1.63;;;11.60;99.90;;;;;;5036281;28;20025;-75
2022/10/04 05:55:19;;;;;;;5.63;1.70;;;11.70;99.90;;;;;;5035795;28;20429;-75
2022/10/04 05:57:57;;;;;;;3.15;1.20;;;11.70;99.90;;;;;;5052962;28;20108;-75
2022/10/04 06:00:31;;;;;;;7.55;2.00;;;11.70;99.90;;;;;;5035734;28;20063;-75
2022/10/04 06:03:08;;;;;;;5.38;1.38;;;11.70;99.90;;;;;;5034951;28;20037;-75
2022/10/04 06:05:49;;;;;;;3.58;1.65;;;11.80;99.90;;;;;;5054572;28;20036;-75
2022/10/04 06:08:40;;;;;;;6.10;2.10;;;11.80;99.90;;;;;;5039107;28;20028;-75
2022/10/04 06:11:33;;;;;;;1.77;1.30;;;11.80;99.90;;;;;;5038993;28;20086;-75
2022/10/04 06:14:20;;;;;;;4.93;2.78;;;11.80;99.90;;;;;;5039255;28;20029;-75
2022/10/04 06:17:08;;;;;;;3.20;1.52;;;11.90;99.90;;;;;;5038898;28;20497;-75
2022/10/04 06:19:40;;;;;;;4.72;1.60;;;11.90;99.90;;;;;;5038962;28;20024;-75
2022/10/04 06:22:20;;;;;;;8.82;1.60;;;11.90;99.90;;;;;;5056469;28;20160;-75
2022/10/04 06:24:52;;;;;;;5.13;1.42;;;11.90;99.90;;;;;;5039585;28;20449;-75
2022/10/04 06:27:36;;;;;;;6.65;2.00;;;11.90;99.90;;;;;;5039198;28;20373;-75
2022/10/04 06:30:05;;;;;;;5.97;1.77;;;11.90;99.90;;;;;;5038917;28;20068;-75
2022/10/04 06:32:58;;;;;;;4.25;1.40;;;11.90;99.90;;;;;;5038653;28;20048;-75
2022/10/04 06:35:35;;;;;;;3.10;1.77;;;11.90;99.90;;;;;;5038869;28;20055;-75
2022/10/04 06:38:31;;;;;;;4.05;1.67;;;11.90;99.90;;;;;;5056739;28;20040;-74
2022/10/04 06:41:05;;;;;;;4.05;1.27;;;11.90;99.90;;;;;;5056223;28;20017;-75
2022/10/04 06:43:56;;;;;;;3.53;1.77;;;12.00;99.90;;;;;;5056299;28;20079;-75
2022/10/04 06:46:36;;;;;;;4.75;1.60;;;12.00;99.90;;;;;;5038522;28;20028;-75
2022/10/04 06:49:16;;;;;;;7.57;1.80;;;12.00;99.90;;;;;;5038862;28;20028;-75
2022/10/04 06:52:03;;;;;;;3.65;1.73;;;12.00;99.90;;;;;;5037956;28;20032;-75
2022/10/04 06:55:02;;;;;;;5.93;1.80;;;12.10;99.90;;;;;;5038694;28;20024;-75
2022/10/04 06:57:35;;;;;;;7.70;1.23;;;12.10;99.90;;;;;;5038550;28;20392;-75
2022/10/04 07:00:21;;;;;;;4.05;1.42;;;12.10;99.90;;;;;;5038289;28;20021;-75
2022/10/04 07:03:13;;;;;;;5.80;1.60;;;12.10;99.90;;;;;;5038219;28;20368;-75
2022/10/04 07:05:55;;;;;;;4.95;1.60;;;12.20;99.90;;;;;;5038190;28;20025;-75
2022/10/04 07:08:47;;;;;;;3.05;1.20;;;12.20;99.90;;;;;;5056062;28;20056;-75
2022/10/04 07:11:14;;;;;;;6.40;1.50;;;12.30;99.90;;;;;;5038044;28;20075;-75
2022/10/04 07:13:46;;;;;;;7.50;2.00;;;12.30;99.90;;;;;;5055689;28;20553;-75
2022/10/04 07:16:42;;;;;;;3.72;1.70;;;12.20;99.90;;;;;;5054940;28;20025;-75
2022/10/04 07:19:30;;;;;;;4.65;1.40;;;12.20;99.90;;;;;;5038237;28;20104;-75
2022/10/04 07:22:11;;;;;;;4.25;1.80;;;12.30;99.90;;;;;;5037794;28;20032;-75
2022/10/04 07:24:55;;;;;;;11.32;2.90;;;12.30;99.90;;;;;;5038232;28;20025;-76
2022/10/04 07:27:30;;;;;;;2.83;1.50;;;12.40;99.90;;;;;;5037753;28;20372;-76
2022/10/04 07:30:00;;;;;;;5.22;1.50;;;12.40;99.90;;;;;;5037621;28;20116;-75
2022/10/04 07:32:34;;;;;;;3.22;1.50;;;12.50;99.90;;;;;;5055549;28;20025;-76
2022/10/04 07:35:03;;;;;;;4.63;1.45;;;12.50;99.90;;;;;;5037302;28;20029;-75
2022/10/04 07:37:35;;;;;;;5.43;1.30;;;12.60;99.90;;;;;;5037648;28;20025;-75
2022/10/04 07:40:17;;;;;;;2.42;1.35;;;12.70;99.90;;;;;;5037730;28;20032;-74
2022/10/04 07:43:26;;;;;;;5.70;1.73;;;12.90;99.90;;;;;;5055596;28;20029;-75
2022/10/04 07:46:01;;;;;;;5.43;1.20;;;13.10;99.90;;;;;;4960869;28;20037;-75
2022/10/04 07:48:28;;;;;;;3.03;1.30;;;13.30;99.90;;;;;;5037531;28;20130;-76
2022/10/04 07:51:24;;;;;;;6.53;1.60;;;13.70;99.90;;;;;;5037297;28;20454;-76
2022/10/04 07:54:00;;;;;;;5.28;1.30;;;14.40;99.90;;;;;;5036507;28;20025;-76
2022/10/04 07:56:46;;;;;;;4.72;1.35;;;14.80;99.90;;;;;;5037105;28;20024;-77
2022/10/04 07:59:42;;;;;;;2.78;0.95;;;14.90;99.90;;;;;;5054484;28;20068;-77
2022/10/04 08:02:43;;;;;;;4.60;1.35;;;15.10;99.90;;;;;;5037054;28;20025;-76
2022/10/04 08:05:28;;;;;;;3.45;1.15;;;15.30;99.90;;;;;;5037354;28;20090;-77
2022/10/04 08:08:20;;;;;;;9.10;1.58;;;15.50;99.90;;;;;;5036956;28;20033;-77
2022/10/04 08:11:11;;;;;;;3.83;1.30;;;15.40;99.90;;;;;;5037073;28;20078;-77
2022/10/04 08:13:57;;;;;;;8.95;1.33;;;15.30;99.90;;;;;;5036782;28;20025;-77
2022/10/04 08:16:32;;;;;;;4.40;1.25;;;15.30;99.90;;;;;;5054318;28;20087;-77
2022/10/04 08:19:00;;;;;;;2.17;0.98;;;15.10;99.90;;;;;;5036810;28;20060;-77
2022/10/04 08:21:41;;;;;;;8.57;3.03;;;15.10;99.90;;;;;;5054574;28;20025;-77
2022/10/04 08:24:17;;;;;;;4.80;1.50;;;15.30;99.90;;;;;;5036960;28;20032;-77
2022/10/04 08:27:19;;;;;;;10.77;1.70;;;15.00;99.90;;;;;;5054357;28;20416;-77
2022/10/04 08:29:58;;;;;;;5.30;1.48;;;14.60;99.90;;;;;;5036312;28;20017;-77
2022/10/04 08:32:42;;;;;;;4.55;0.93;;;14.60;99.90;;;;;;5036596;28;20087;-77
2022/10/04 08:35:28;;;;;;;2.95;1.10;;;14.50;99.90;;;;;;5036560;28;20060;-77
2022/10/04 08:38:08;;;;;;;4.93;1.40;;;14.50;99.90;;;;;;5054687;28;20048;-77
2022/10/04 08:41:17;;;;;;;4.65;1.17;;;14.30;99.90;;;;;;5054319;28;20032;-76
2022/10/04 08:43:55;;;;;;;;;;;14.20;99.90;;;;;;5036047;28;20535;-77
2022/10/04 08:46:45;;;;;;;2.50;1.43;;;14.30;99.90;;;;;;5053796;28;20337;-76
2022/10/04 08:49:33;;;;;;;6.35;1.48;;;14.40;99.90;;;;;;5036063;28;20303;-76
2022/10/04 08:52:16;;;;;;;3.40;1.13;;;14.60;99.90;;;;;;5036097;28;20120;-77
2022/10/04 08:54:48;;;;;;;5.40;1.40;;;14.70;99.90;;;;;;5036437;28;20029;-77
2022/10/04 08:57:35;;;;;;;5.72;1.33;;;14.70;99.90;;;;;;5035782;28;20117;-77
2022/10/04 09:00:40;;;;;;;1.73;1.10;;;14.90;99.90;;;;;;5036288;28;20048;-77
2022/10/04 09:03:17;;;;;;;2.75;0.95;;;15.00;99.90;;;;;;5053687;28;20095;-76
2022/10/04 09:05:53;;;;;;;5.32;1.30;;;15.00;99.90;;;;;;5035895;28;20476;-77
2022/10/04 09:08:43;;;;;;;2.88;1.02;;;14.90;99.90;;;;;;5036366;28;20036;-77
2022/10/04 09:11:30;;;;;;;3.28;1.13;;;15.00;99.90;;;;;;5035974;28;20381;-77
2022/10/04 09:14:14;;;;;;;8.35;1.88;;;15.00;99.90;;;;;;5035767;28;20071;-77
2022/10/04 09:16:48;;;;;;;7.38;1.50;;;14.90;99.90;;;;;;5035996;28;20473;-77
2022/10/04 09:19:45;;;;;;;3.83;1.23;;;15.00;99.90;;;;;;5035881;28;20068;-77
2022/10/04 09:22:21;;;;;;;14.05;2.53;;;15.10;99.90;;;;;;5035890;28;20032;-77
2022/10/04 09:25:19;;;;;;;3.70;1.00;;;15.10;99.90;;;;;;5035469;28;20029;-77
2022/10/04 09:28:27;;;;;;;4.95;1.40;;;15.00;99.90;;;;;;5035971;28;20028;-77
2022/10/04 09:31:10;;;;;;;4.13;0.90;;;14.90;99.90;;;;;;4990089;28;20032;-77
2022/10/04 09:34:08;;;;;;;3.90;1.17;;;15.10;99.90;;;;;;5035644;28;20021;-77
2022/10/04 09:37:02;;;;;;;2.13;1.27;;;15.20;99.90;;;;;;5035434;28;20044;-78
2022/10/04 09:40:06;;;;;;;5.53;1.00;;;15.20;99.90;;;;;;5037108;28;20053;-77
2022/10/04 09:43:06;;;;;;;2.30;1.05;;;15.20;99.90;;;;;;5040231;28;20376;-77
2022/10/04 09:46:10;;;;;;;7.78;1.95;;;15.30;99.90;;;;;;5058047;28;20039;-77
2022/10/04 09:49:00;;;;;;;4.50;1.17;;;15.50;99.90;;;;;;5057635;28;20049;-78
2022/10/04 09:51:44;;;;;;;3.33;1.20;;;15.70;99.90;;;;;;5039484;28;20069;-77
2022/10/04 09:54:42;;;;;;;2.72;1.02;;;15.90;99.90;;;;;;5039610;28;20033;-78
2022/10/04 09:57:19;;;;;;;6.03;1.58;;;16.30;99.90;;;;;;5057695;28;20028;-78
2022/10/04 10:00:01;;;;;;;2.85;0.90;;;16.40;99.90;;;;;;5039630;28;20119;-78
2022/10/04 10:03:25;;;;;;;4.68;1.00;;;16.50;99.90;;;;;;5057112;28;20067;-78
2022/10/04 10:06:12;;;;;;;4.25;1.40;;;16.70;99.90;;;;;;5039876;28;20416;-78
2022/10/04 10:08:52;;;;;;;2.80;0.93;;;16.90;99.90;;;;;;5039022;28;20033;-79
2022/10/04 10:14:16;;;;;;;4.18;1.00;;;17.30;99.90;;;;;;5056696;28;20066;-78
2022/10/04 10:17:02;;;;;;;3.25;1.10;;;17.60;99.80;;;;;;5038687;28;20082;-78
2022/10/04 10:19:43;;;;;;;3.28;0.88;;;18.10;98.90;;;;;;5056683;28;20029;-78
2022/10/04 10:22:34;;;;;;;3.28;1.00;;;18.60;97.50;;;;;;5056232;28;20083;-78
2022/10/04 10:24:59;;;;;;;5.18;1.23;;;18.90;96.20;;;;;;5056216;28;20381;-78
2022/10/04 10:27:51;;;;;;;3.28;0.85;;;18.60;96.30;;;;;;5038730;28;20127;-78
2022/10/04 10:30:30;;;;;;;5.57;0.90;;;18.40;96.50;;;;;;5056513;28;20035;-78
2022/10/04 10:33:10;;;;;;;3.40;1.25;;;18.80;95.80;;;;;;5038927;28;20029;-78
2022/10/04 10:35:44;;;;;;;7.57;0.88;;;18.80;95.00;;;;;;5039006;28;20064;-78
2022/10/04 10:38:35;;;;;;;2.95;0.85;;;18.70;95.20;;;;;;5038731;28;20030;-78
2022/10/04 10:41:37;;;;;;;6.80;1.30;;;19.20;94.60;;;;;;5038689;28;20174;-78
2022/10/04 10:44:11;;;;;;;3.72;1.10;;;19.80;93.80;;;;;;5038487;28;20469;-78
2022/10/04 10:47:02;;;;;;;3.67;0.95;;;20.30;91.80;;;;;;5056102;28;20029;-78
2022/10/04 10:49:54;;;;;;;6.18;0.80;;;21.00;90.10;;;;;;5038494;28;20029;-78
2022/10/04 10:53:06;;;;;;;3.65;1.10;;;21.50;86.10;;;;;;5037418;28;20025;-78
2022/10/04 10:56:00;;;;;;;3.30;0.82;;;21.80;82.50;;;;;;5000608;28;20128;-78
2022/10/04 10:59:00;;;;;;;7.20;1.10;;;21.70;80.30;;;;;;5038105;28;20025;-78
2022/10/04 11:01:59;;;;;;;5.30;0.88;;;22.00;80.90;;;;;;5037815;28;20025;-78
2022/10/04 11:04:48;;;;;;;10.45;1.35;;;22.50;75.60;;;;;;5038021;28;20064;-78
2022/10/04 11:07:32;;;;;;;4.97;0.73;;;21.90;75.40;;;;;;5038708;28;20029;-78
2022/10/04 11:10:18;;;;;;;2.97;0.90;;;21.80;76.80;;;;;;5055864;28;20051;-78
2022/10/04 11:13:02;;;;;;;2.08;0.70;;;22.10;74.90;;;;;;5038205;28;20032;-79
2022/10/04 11:15:50;;;;;;;4.82;0.88;;;22.70;74.70;;;;;;5037722;28;20025;-79
2022/10/04 11:18:49;;;;;;;4.90;1.07;;;22.90;71.70;;;;;;5037955;28;20393;-79
2022/10/04 11:21:50;;;;;;;2.88;0.80;;;23.70;70.30;;;;;;5037899;28;20347;-79
2022/10/04 11:24:45;;;;;;;4.25;0.80;;;24.10;66.80;;;;;;5037583;28;20036;-80
2022/10/04 11:27:45;;;;;;;6.28;1.20;;;23.90;66.60;;;;;;4996417;28;20029;-79
2022/10/04 11:30:25;;;;;;;3.75;0.90;;;24.10;65.70;;;;;;5037752;28;20117;-79
2022/10/04 11:33:28;;;;;;;4.40;1.00;;;23.70;65.80;;;;;;5037527;28;20024;-79
2022/10/04 11:36:24;;;;;;;2.67;0.80;;;23.70;65.60;;;;;;5055699;28;20040;-79
2022/10/04 11:39:15;;;;;;;2.70;0.70;;;22.30;67.00;;;;;;5037323;28;20025;-79
2022/10/04 11:41:47;;;;;;;3.22;0.40;;;22.40;67.60;;;;;;5055424;28;20032;-79
2022/10/04 11:44:37;;;;;;;5.93;0.70;;;21.70;69.00;;;;;;5037420;28;20036;-79
2022/10/04 11:47:34;;;;;;;0.85;0.50;;;22.40;68.80;;;;;;5055161;28;20077;-79
2022/10/04 11:50:22;;;;;;;3.95;1.00;;;23.30;67.10;;;;;;5037840;28;20492;-79
2022/10/04 11:52:57;;;;;;;5.40;1.25;;;23.40;64.90;;;;;;5037024;28;20025;-79
2022/10/04 11:55:25;;;;;;;3.30;0.80;;;22.60;65.70;;;;;;5036959;28;20033;-79
2022/10/04 11:58:47;;;;;;;2.85;0.80;;;21.40;68.40;;;;;;5037185;28;20065;-78
2022/10/04 12:01:29;;;;;;;4.75;0.75;;;21.00;71.40;;;;;;5023562;28;20124;-78
2022/10/04 12:04:07;;;;;;;6.43;0.75;;;20.40;72.40;;;;;;5036714;28;20053;-79
2022/10/04 12:06:57;;;;;;;1.65;0.47;;;20.00;74.60;;;;;;5036866;28;20032;-78
2022/10/04 12:10:06;;;;;;;1.95;0.40;;;20.40;73.60;;;;;;5036975;28;20032;-79
2022/10/04 12:12:55;;;;;;;1.83;0.70;;;22.00;68.40;;;;;;4990921;28;20068;-79
2022/10/04 12:15:31;;;;;;;;;;;21.30;69.00;;;;;;5024109;28;20087;-79
2022/10/04 12:18:27;;;;;;;2.85;0.90;;;20.50;71.70;;;;;;5036980;28;20414;-78
2022/10/04 12:21:21;;;;;;;3.83;0.68;;;20.00;73.80;;;;;;5054634;28;20108;-79
2022/10/04 12:24:13;;;;;;;4.82;0.77;;;19.90;75.50;;;;;;5036958;28;20395;-79
2022/10/04 12:27:16;;;;;;;2.50;0.73;;;21.30;71.40;;;;;;5036509;28;20036;-79
2022/10/04 12:30:01;;;;;;;3.30;0.65;;;21.00;70.40;;;;;;5036593;28;20025;-80
2022/10/04 12:32:41;;;;;;;7.38;2.47;;;19.90;72.50;;;;;;5054692;28;20095;-80
2022/10/04 12:35:13;;;;;;;2.10;0.52;;;19.40;74.70;;;;;;5036833;28;20116;-81
2022/10/04 12:38:05;;;;;;;3.85;0.80;;;19.00;76.50;;;;;;5054651;28;20099;-80
2022/10/04 12:40:42;;;;;;;2.45;1.38;;;18.70;78.10;;;;;;5036553;28;20115;-79
2022/10/04 12:43:29;;;;;;;4.10;0.80;;;18.10;78.50;;;;;;5036573;28;20032;-79
2022/10/04 12:46:11;;;;;;;4.15;0.68;;;18.00;79.40;;;;;;5020004;28;20073;-78
2022/10/04 12:48:55;;;;;;;3.97;0.80;;;18.30;79.00;;;;;;5036507;28;20025;-79
2022/10/04 12:52:02;;;;;;;4.82;0.85;;;18.20;79.20;;;;;;5036131;28;20074;-79
2022/10/04 12:55:08;;;;;;;4.97;0.65;;;18.60;79.10;;;;;;4937434;29;20094;-80
2022/10/04 12:57:43;;;;;;;2.88;0.70;;;20.00;78.20;;;;;;4937593;29;20669;-80
2022/10/04 13:00:23;;;;;;;4.30;0.70;;;21.10;72.80;;;;;;4937768;29;20042;-79
2022/10/04 13:02:57;;;;;;;1.70;0.70;;;20.70;73.00;;;;;;4953235;29;20031;-78
2022/10/04 13:05:49;;;;;;;2.50;0.60;;;21.30;72.80;;;;;;4953763;29;20043;-74
2022/10/04 13:08:48;;;;;;;1.50;0.70;;;22.80;69.40;;;;;;4948921;29;20043;-76
2022/10/04 13:11:40;;;;;;;3.95;0.40;;;22.30;67.60;;;;;;4937419;29;20439;-76
2022/10/04 13:14:43;;;;;;;3.65;0.70;;;21.50;69.70;;;;;;4936920;29;20042;-76
2022/10/04 13:17:36;;;;;;;1.33;0.40;;;20.30;71.60;;;;;;4953464;29;20027;-75
2022/10/04 13:20:11;;;;;;;3.63;0.90;;;20.80;72.50;;;;;;4937337;29;20439;-76
2022/10/04 13:23:26;;;;;;;3.30;0.65;;;21.90;69.10;;;;;;4953403;29;20049;-75
2022/10/04 13:26:20;;;;;;;4.25;0.80;;;22.80;68.40;;;;;;5010181;28;20040;-75
2022/10/04 13:29:00;;;;;;;2.53;0.63;;;23.30;65.10;;;;;;5053324;28;20078;-75
2022/10/04 13:32:09;;;;;;;2.28;0.80;;;23.90;63.90;;;;;;5053389;28;20021;-76
2022/10/04 13:35:12;;;;;;;1.45;0.57;;;24.90;62.20;;;;;;5034805;28;20029;-75
2022/10/04 13:38:04;;;;;;;3.28;0.88;;;24.60;59.80;;;;;;5053934;28;20025;-76
2022/10/04 13:40:55;;;;;;;1.08;0.75;;;23.60;61.20;;;;;;5015418;28;20037;-76
2022/10/04 13:43:48;;;;;;;0.52;0.35;;;22.10;64.70;;;;;;4995257;28;20443;-76
2022/10/04 13:46:38;;;;;;;2.17;0.63;;;20.80;68.20;;;;;;5022499;28;20108;-76
2022/10/04 13:49:23;;;;;;;3.63;0.98;;;19.60;71.90;;;;;;5035408;28;20082;-76
2022/10/04 13:58:40;;;;;;;1.23;0.80;;;18.30;78.90;;;;;;5053011;28;20040;-76
2022/10/04 14:01:32;;;;;;;3.08;0.73;;;18.20;78.60;;;;;;5052896;28;20033;-75
2022/10/04 14:04:17;;;;;;;2.92;0.90;;;18.50;79.40;;;;;;5034885;28;20401;-75
2022/10/04 14:07:04;;;;;;;4.65;0.80;;;18.50;79.00;;;;;;5035212;28;20021;-75
2022/10/04 14:09:53;;;;;;;3.88;0.82;;;18.50;79.60;;;;;;5035475;28;20048;-75